Time;durP1;ratioP1;P1;durP2;ratioP2;P2;SDS_P1;SDS_P2;PMS_P1;PMS_P2;Temp;Humidity;BMP_temperature;BMP_pressure;BME280_temperature;BME280_humidity;BME280_pressure;Samples;Min_cycle;Max_cycle;Signal;HPM_P1;HPM_P2
2021/05/09 00:01:37;;;;;;;;;;;;;;;18.67;66.92;101610.81;5016644;28;1419;-54
2021/05/09 00:04:04;;;;;;;;;;;;;;;18.68;67.14;101616.06;5016351;28;1032;-54
2021/05/09 00:06:30;;;;;;;;;;;;;;;18.66;66.86;101606.41;5016579;28;1052;-54
2021/05/09 00:08:57;;;;;;;;;;;;;;;18.66;66.85;101626.03;5016181;28;1103;-54
2021/05/09 00:11:23;;;;;;;;;;;;;;;18.65;66.71;101627.00;5016165;28;1228;-54
2021/05/09 00:13:49;;;;;;;;;;;;;;;18.65;66.95;101618.97;5016378;28;1987;-54
2021/05/09 00:16:15;;;;;;;;;;;;;;;18.66;66.35;101623.38;5015711;28;1044;-54
2021/05/09 00:18:41;;;;;;;;;;;;;;;18.66;66.90;101633.19;5016423;28;1053;-53
2021/05/09 00:21:08;;;;;;;;;;;;;;;18.64;66.60;101624.41;5016019;28;1095;-53
2021/05/09 00:23:35;;;;;;;;;;;;;;;18.64;66.73;101625.28;5016003;28;1025;-54
2021/05/09 00:26:01;;;;;;;;;;;;;;;18.64;66.50;101630.66;5016287;28;979;-54
2021/05/09 00:28:27;;;;;;;;;;;;;;;18.65;66.76;101636.84;5016233;28;967;-54
2021/05/09 00:30:53;;;;;;;;;;;;;;;18.61;66.91;101630.88;5015870;28;1122;-54
2021/05/09 00:33:19;;;;;;;;;;;;;;;18.63;66.89;101636.13;5016018;28;1902;-53
2021/05/09 00:35:45;;;;;;;;;;;;;;;18.63;67.14;101642.31;5016077;28;1020;-54
2021/05/09 00:38:13;;;;;;;;;;;;;;;18.63;66.66;101670.94;5016080;28;1070;-54
2021/05/09 00:40:39;;;;;;;;;;;;;;;18.62;66.82;101656.69;5015972;28;992;-54
2021/05/09 00:43:05;;;;;;;;;;;;;;;18.61;66.73;101656.81;5015720;28;1060;-54
2021/05/09 00:45:31;;;;;;;;;;;;;;;18.62;66.91;101662.06;5015942;28;1082;-54
2021/05/09 00:47:57;;;;;;;;;;;;;;;18.63;67.06;101665.59;5015938;28;1069;-54
2021/05/09 00:50:23;;;;;;;;;;;;;;;18.64;66.89;101664.59;5015605;28;1060;-53
2021/05/09 00:52:49;;;;;;;;;;;;;;;18.62;66.71;101667.41;5015796;28;1154;-54
2021/05/09 00:55:16;;;;;;;;;;;;;;;18.62;66.68;101661.19;5015247;28;1902;-55
2021/05/09 00:57:43;;;;;;;;;;;;;;;18.62;66.87;101667.41;5015728;28;1078;-54
2021/05/09 01:00:11;;;;;;;;;;;;;;;18.62;66.85;101674.56;5015687;28;1048;-54
2021/05/09 01:02:39;;;;;;;;;;;;;;;18.60;66.79;101661.31;5015205;28;1428;-53
2021/05/09 01:05:06;;;;;;;;;;;;;;;18.62;66.63;101672.78;5015338;28;1055;-54
2021/05/09 01:07:32;;;;;;;;;;;;;;;18.61;66.61;101675.56;5015541;28;1061;-54
2021/05/09 01:09:59;;;;;;;;;;;;;;;18.57;66.77;101674.91;5015246;28;1127;-54
2021/05/09 01:12:26;;;;;;;;;;;;;;;18.62;66.67;101679.94;5015071;28;1216;-54
2021/05/09 01:14:52;;;;;;;;;;;;;;;18.58;66.78;101676.66;5015098;28;1914;-54
2021/05/09 01:17:18;;;;;;;;;;;;;;;18.58;66.79;101682.00;5015154;28;1032;-54
2021/05/09 01:19:44;;;;;;;;;;;;;;;18.58;66.60;101668.59;5015414;28;1122;-54
2021/05/09 01:22:11;;;;;;;;;;;;;;;18.60;66.57;101682.75;5015352;28;1886;-54
2021/05/09 01:24:37;;;;;;;;;;;;;;;18.56;66.74;101685.72;5015301;28;1011;-54
2021/05/09 01:27:04;;;;;;;;;;;;;;;18.58;66.59;101690.03;5015185;28;1057;-54
2021/05/09 01:29:30;;;;;;;;;;;;;;;18.57;66.77;101693.66;5015295;28;1031;-54
2021/05/09 01:31:57;;;;;;;;;;;;;;;18.56;66.54;101686.63;5014869;28;1055;-54
2021/05/09 01:34:23;;;;;;;;;;;;;;;18.57;66.69;101699.03;5015168;28;1910;-53
2021/05/09 01:36:49;;;;;;;;;;;;;;;18.55;66.81;101698.28;5015261;28;995;-54
2021/05/09 01:39:15;;;;;;;;;;;;;;;18.55;66.69;101700.97;5014891;28;1063;-54
2021/05/09 01:41:41;;;;;;;;;;;;;;;18.55;66.58;101702.78;5015151;28;1324;-53
2021/05/09 01:44:07;;;;;;;;;;;;;;;18.56;66.57;101718.75;5015137;28;981;-53
2021/05/09 01:46:33;;;;;;;;;;;;;;;18.54;66.65;101709.94;5014847;28;1110;-54
2021/05/09 01:49:00;;;;;;;;;;;;;;;18.56;66.97;101710.72;5015120;28;1009;-54
2021/05/09 01:51:26;;;;;;;;;;;;;;;18.51;66.48;101723.56;5014839;28;1051;-53
2021/05/09 01:53:52;;;;;;;;;;;;;;;18.55;66.58;101724.22;5015008;28;1977;-54
2021/05/09 01:56:19;;;;;;;;;;;;;;;18.54;66.82;101709.09;5014683;28;1016;-53
2021/05/09 01:58:45;;;;;;;;;;;;;;;18.53;66.94;101723.47;5014962;28;1032;-53
2021/05/09 02:01:18;;;;;;;;;;;;;;;18.55;66.50;101733.09;5018694;23;2136;-45
2021/05/09 02:03:43;;;;;;;;;;;;;;;18.52;66.22;101727.94;4994018;28;1147;-44
2021/05/09 02:06:09;;;;;;;;;;;;;;;18.54;66.57;101742.09;4994085;28;1080;-44
2021/05/09 02:08:35;;;;;;;;;;;;;;;18.55;66.60;101749.16;4994021;28;1107;-45
2021/05/09 02:11:01;;;;;;;;;;;;;;;18.51;66.60;101739.66;5022116;23;3575;-54
2021/05/09 02:13:28;;;;;;;;;;;;;;;18.54;66.85;101747.44;5034155;28;1989;-54
2021/05/09 02:15:54;;;;;;;;;;;;;;;18.54;66.51;101749.28;5034719;28;1995;-54
2021/05/09 02:18:20;;;;;;;;;;;;;;;18.53;66.02;101751.09;5034281;28;1035;-54
2021/05/09 02:20:46;;;;;;;;;;;;;;;18.54;66.72;101746.59;5034503;28;990;-54
2021/05/09 02:23:12;;;;;;;;;;;;;;;18.52;66.33;101752.06;5034229;28;1115;-53
2021/05/09 02:25:39;;;;;;;;;;;;;;;18.53;66.41;101767.19;5034379;28;982;-54
2021/05/09 02:28:05;;;;;;;;;;;;;;;18.52;66.65;101753.88;5034122;28;1059;-54
2021/05/09 02:30:32;;;;;;;;;;;;;;;18.52;66.42;101768.13;5034522;28;1073;-54
2021/05/09 02:32:58;;;;;;;;;;;;;;;18.51;66.59;101769.09;5034480;28;1007;-54
2021/05/09 02:35:24;;;;;;;;;;;;;;;18.51;66.89;101779.81;5033968;28;1906;-54
2021/05/09 02:37:50;;;;;;;;;;;;;;;18.50;66.46;101767.38;5034118;28;1020;-54
2021/05/09 02:40:16;;;;;;;;;;;;;;;18.48;66.91;101780.03;5036283;28;990;-54
2021/05/09 02:42:44;;;;;;;;;;;;;;;18.48;66.68;101772.88;5038027;28;951;-53
2021/05/09 02:45:10;;;;;;;;;;;;;;;18.52;66.62;101786.88;5037614;28;1098;-54
2021/05/09 02:47:37;;;;;;;;;;;;;;;18.47;66.42;101794.41;5037921;28;979;-54
2021/05/09 02:50:05;;;;;;;;;;;;;;;18.50;66.78;101804.88;5037834;28;1045;-54
2021/05/09 02:52:31;;;;;;;;;;;;;;;18.50;66.56;101799.53;5037600;28;1071;-54
2021/05/09 02:54:57;;;;;;;;;;;;;;;18.49;66.53;101805.84;5037568;28;1906;-54
2021/05/09 02:57:23;;;;;;;;;;;;;;;18.47;66.13;101805.09;5038052;28;1026;-54
2021/05/09 02:59:49;;;;;;;;;;;;;;;18.49;66.47;101814.75;5037399;28;1122;-54
2021/05/09 03:02:15;;;;;;;;;;;;;;;18.45;66.90;101797.16;5037451;28;1386;-54
2021/05/09 03:04:42;;;;;;;;;;;;;;;18.50;66.74;101820.94;5037280;28;1468;-53
2021/05/09 03:07:08;;;;;;;;;;;;;;;18.47;66.23;101822.03;5037281;28;925;-54
2021/05/09 03:09:34;;;;;;;;;;;;;;;18.48;66.59;101805.00;5037246;28;1304;-54
2021/05/09 03:12:00;;;;;;;;;;;;;;;18.48;66.40;101817.53;5037131;28;1535;-54
2021/05/09 03:14:26;;;;;;;;;;;;;;;18.49;66.48;101824.59;5037265;28;1906;-54
2021/05/09 03:16:52;;;;;;;;;;;;;;;18.49;66.59;101824.59;5037326;28;1015;-53
2021/05/09 03:19:18;;;;;;;;;;;;;;;18.45;66.50;101815.06;5037075;28;1055;-54
2021/05/09 03:21:45;;;;;;;;;;;;;;;18.48;66.38;101825.56;5037301;28;978;-54
2021/05/09 03:24:11;;;;;;;;;;;;;;;18.49;66.37;101821.94;5037265;28;911;-54
2021/05/09 03:26:37;;;;;;;;;;;;;;;18.48;66.24;101834.47;5036835;28;1043;-54
2021/05/09 03:29:03;;;;;;;;;;;;;;;18.46;66.17;101846.22;5036817;28;1105;-54
2021/05/09 03:31:29;;;;;;;;;;;;;;;18.47;66.56;101838.09;5037159;28;1066;-54
2021/05/09 03:33:55;;;;;;;;;;;;;;;18.48;66.61;101845.19;5036697;28;1977;-54
2021/05/09 03:36:21;;;;;;;;;;;;;;;18.44;66.56;101848.16;5036679;28;998;-54
2021/05/09 03:38:48;;;;;;;;;;;;;;;18.49;66.47;101851.38;5036990;28;991;-54
2021/05/09 03:41:14;;;;;;;;;;;;;;;18.52;66.32;101848.47;5036868;28;978;-53
2021/05/09 03:43:40;;;;;;;;;;;;;;;18.51;65.94;101859.31;5036950;28;1014;-53
2021/05/09 03:46:07;;;;;;;;;;;;;;;18.55;66.13;101850.97;5036555;28;1118;-54
2021/05/09 03:48:33;;;;;;;;;;;;;;;18.53;66.18;101858.25;5036800;28;1048;-54
2021/05/09 03:50:59;;;;;;;;;;;;;;;18.56;66.15;101866.09;5035131;28;1059;-53
2021/05/09 03:53:24;;;;;;;;;;;;;;;18.57;65.99;101859.75;5036455;28;1902;-54
2021/05/09 03:55:51;;;;;;;;;;;;;;;18.61;65.91;101863.94;5036418;28;1054;-54
2021/05/09 03:58:17;;;;;;;;;;;;;;;18.62;65.52;101868.34;5036389;28;1117;-54
2021/05/09 04:00:43;;;;;;;;;;;;;;;18.70;65.54;101881.19;5036576;28;1121;-54
2021/05/09 04:03:19;;;;;;;;;;;;;;;18.76;65.61;101882.56;5036436;28;1507;-54
2021/05/09 04:05:46;;;;;;;;;;;;;;;18.84;64.98;101886.50;5036476;28;1010;-54
2021/05/09 04:08:12;;;;;;;;;;;;;;;18.91;64.68;101878.88;5036390;28;1073;-54
2021/05/09 04:10:38;;;;;;;;;;;;;;;19.05;64.36;101896.66;5035799;28;1129;-53
2021/05/09 04:13:04;;;;;;;;;;;;;;;19.20;64.12;101895.59;5036016;28;1047;-54
2021/05/09 04:15:30;;;;;;;;;;;;;;;19.34;64.07;101899.97;5036183;28;1910;-54
2021/05/09 04:17:56;;;;;;;;;;;;;;;19.54;63.58;101908.41;5036164;28;991;-54
2021/05/09 04:20:22;;;;;;;;;;;;;;;19.77;62.97;101904.91;5036116;28;1058;-54
2021/05/09 04:22:48;;;;;;;;;;;;;;;19.96;62.37;101909.78;5036150;28;1018;-54
2021/05/09 04:25:14;;;;;;;;;;;;;;;20.17;61.64;101917.19;5035810;28;1876;-54
2021/05/09 04:27:40;;;;;;;;;;;;;;;20.32;61.23;101904.44;5035741;28;1058;-54
2021/05/09 04:30:08;;;;;;;;;;;;;;;20.53;60.54;101923.44;5035667;28;1067;-54
2021/05/09 04:32:34;;;;;;;;;;;;;;;20.97;59.62;101920.03;5035935;28;965;-54
2021/05/09 04:35:00;;;;;;;;;;;;;;;20.85;59.82;101910.25;5035766;28;1906;-54
2021/05/09 04:37:26;;;;;;;;;;;;;;;20.61;60.64;101915.66;5035586;28;1142;-54
2021/05/09 04:39:52;;;;;;;;;;;;;;;20.49;60.56;101933.56;5035850;28;1084;-54
2021/05/09 04:42:18;;;;;;;;;;;;;;;20.37;60.96;101919.25;5035443;28;1059;-54
2021/05/09 04:44:44;;;;;;;;;;;;;;;20.25;61.10;101910.28;5035457;28;1112;-54
2021/05/09 04:47:11;;;;;;;;;;;;;;;20.12;61.85;101930.97;5035745;28;986;-54
2021/05/09 04:49:37;;;;;;;;;;;;;;;20.05;61.67;101924.34;5035621;28;977;-54
2021/05/09 04:52:05;;;;;;;;;;;;;;;19.92;62.08;101935.13;5035227;28;1062;-54
2021/05/09 04:54:31;;;;;;;;;;;;;;;19.88;62.27;101933.66;5035021;28;1905;-54
2021/05/09 04:56:57;;;;;;;;;;;;;;;19.79;62.28;101939.69;5035522;28;1065;-54
2021/05/09 04:59:23;;;;;;;;;;;;;;;19.72;62.67;101946.50;5035198;28;1051;-54
2021/05/09 05:01:49;;;;;;;;;;;;;;;19.62;63.29;101946.25;5034903;28;1427;-54
2021/05/09 05:04:16;;;;;;;;;;;;;;;19.60;63.40;101950.88;5035211;28;986;-54
2021/05/09 05:06:42;;;;;;;;;;;;;;;19.57;63.23;101951.94;5035354;28;1049;-55
2021/05/09 05:09:08;;;;;;;;;;;;;;;19.53;63.74;101946.91;5035234;28;985;-54
2021/05/09 05:11:34;;;;;;;;;;;;;;;19.53;63.93;101944.22;5034871;28;1298;-54
2021/05/09 05:14:00;;;;;;;;;;;;;;;19.49;64.06;101948.97;5035179;28;1906;-54
2021/05/09 05:16:26;;;;;;;;;;;;;;;19.47;64.02;101943.69;5035262;28;1064;-54
2021/05/09 05:18:52;;;;;;;;;;;;;;;19.48;64.32;101949.94;5035143;28;1003;-54
2021/05/09 05:21:19;;;;;;;;;;;;;;;19.45;64.37;101952.81;5035030;28;1072;-54
2021/05/09 05:23:44;;;;;;;;;;;;;;;19.41;64.26;101954.00;5035155;28;1065;-54
2021/05/09 05:26:10;;;;;;;;;;;;;;;19.44;63.75;101954.66;5034693;28;1067;-54
2021/05/09 05:28:36;;;;;;;;;;;;;;;19.36;63.92;101937.38;5035007;28;999;-54
2021/05/09 05:31:02;;;;;;;;;;;;;;;19.36;64.20;101954.34;5035302;28;1985;-54
2021/05/09 05:33:29;;;;;;;;;;;;;;;19.36;64.26;101949.00;5034627;28;1975;-54
2021/05/09 05:35:56;;;;;;;;;;;;;;;19.33;64.64;101954.56;5034988;28;1069;-53
2021/05/09 05:38:23;;;;;;;;;;;;;;;19.31;64.91;101943.09;5034884;28;974;-54
2021/05/09 05:40:50;;;;;;;;;;;;;;;19.33;64.61;101965.28;5034871;28;1068;-54
2021/05/09 05:43:17;;;;;;;;;;;;;;;19.31;64.74;101961.84;5034922;28;1042;-54
2021/05/09 05:45:43;;;;;;;;;;;;;;;19.30;64.75;101965.53;5034935;28;1080;-54
2021/05/09 05:48:09;;;;;;;;;;;;;;;19.26;65.03;101958.66;5034587;28;1058;-54
2021/05/09 05:50:34;;;;;;;;;;;;;;;19.27;65.03;101963.03;5034903;28;1102;-53
2021/05/09 05:53:00;;;;;;;;;;;;;;;19.29;64.94;101958.44;5034802;28;1072;-54
2021/05/09 05:55:27;;;;;;;;;;;;;;;19.28;65.04;101962.94;5034731;28;1906;-54
2021/05/09 05:57:53;;;;;;;;;;;;;;;19.30;64.77;101970.88;5034765;28;1061;-54
2021/05/09 06:00:20;;;;;;;;;;;;;;;19.30;64.88;101973.56;5034478;28;1106;-54
2021/05/09 06:02:46;;;;;;;;;;;;;;;19.31;64.99;101975.25;5034547;28;1516;-54
2021/05/09 06:05:13;;;;;;;;;;;;;;;19.32;65.11;101973.44;5034647;28;969;-54
2021/05/09 06:07:39;;;;;;;;;;;;;;;19.32;65.10;101968.94;5034755;28;1052;-54
2021/05/09 06:10:05;;;;;;;;;;;;;;;19.33;64.40;101976.00;5034448;28;1085;-54
2021/05/09 06:12:32;;;;;;;;;;;;;;;19.34;64.79;101967.00;5034283;28;1328;-54
2021/05/09 06:14:58;;;;;;;;;;;;;;;19.34;64.56;101961.66;5036143;28;1989;-54
2021/05/09 06:17:24;;;;;;;;;;;;;;;19.36;64.68;101978.50;5038188;28;1117;-54
2021/05/09 06:19:50;;;;;;;;;;;;;;;19.36;64.86;101957.03;5038102;28;1085;-54
2021/05/09 06:22:16;;;;;;;;;;;;;;;19.36;64.65;101973.13;5038315;28;1057;-54
2021/05/09 06:24:42;;;;;;;;;;;;;;;19.39;64.83;101978.25;5038096;28;1050;-54
2021/05/09 06:27:08;;;;;;;;;;;;;;;19.39;64.77;101990.81;5038367;28;989;-54
2021/05/09 06:29:35;;;;;;;;;;;;;;;19.38;64.54;101989.97;5037926;28;1133;-54
2021/05/09 06:32:01;;;;;;;;;;;;;;;19.43;64.65;101986.94;5038285;28;971;-54
2021/05/09 06:34:27;;;;;;;;;;;;;;;19.41;64.74;101991.56;5038101;28;1978;-54
2021/05/09 06:36:53;;;;;;;;;;;;;;;19.38;64.66;101984.59;5037910;28;1287;-54
2021/05/09 06:39:25;;;;;;;;;;;;;;;19.41;64.88;101987.06;5038094;28;974;-54
2021/05/09 06:41:51;;;;;;;;;;;;;;;19.43;64.83;101990.50;5037571;28;1023;-54
2021/05/09 06:44:17;;;;;;;;;;;;;;;19.41;64.79;101991.56;5037642;28;1093;-53
2021/05/09 06:46:44;;;;;;;;;;;;;;;19.42;64.31;101988.78;5037686;28;1031;-54
2021/05/09 06:49:10;;;;;;;;;;;;;;;19.43;64.77;101993.16;5037654;28;1086;-54
2021/05/09 06:51:36;;;;;;;;;;;;;;;19.48;64.61;101990.19;5038243;28;1988;-54
2021/05/09 06:54:02;;;;;;;;;;;;;;;19.43;64.38;101990.50;5037738;28;1906;-54
2021/05/09 06:56:28;;;;;;;;;;;;;;;19.44;64.08;101999.41;5037550;28;1997;-54
2021/05/09 06:58:54;;;;;;;;;;;;;;;19.43;64.43;101981.59;5038127;28;1877;-53
2021/05/09 07:01:20;;;;;;;;;;;;;;;19.43;64.80;101995.00;5037344;28;1491;-54
2021/05/09 07:03:47;;;;;;;;;;;;;;;19.44;64.57;101992.22;5037632;28;1077;-54
2021/05/09 07:06:13;;;;;;;;;;;;;;;19.46;64.52;101998.34;5037553;28;1057;-54
2021/05/09 07:08:39;;;;;;;;;;;;;;;19.47;64.85;102000.03;5037312;28;1222;-54
2021/05/09 07:11:05;;;;;;;;;;;;;;;19.45;64.40;102001.13;5037114;28;1166;-54
2021/05/09 07:13:31;;;;;;;;;;;;;;;19.45;64.69;101999.28;5037516;28;1053;-54
2021/05/09 07:15:58;;;;;;;;;;;;;;;19.41;64.87;101997.78;5036974;28;1970;-54
2021/05/09 07:18:26;;;;;;;;;;;;;;;19.43;64.14;102001.22;5037067;28;1086;-54
2021/05/09 07:20:55;;;;;;;;;;;;;;;19.43;64.61;102014.63;5037076;28;1231;-54
2021/05/09 07:23:21;;;;;;;;;;;;;;;19.44;64.54;102010.16;5037004;28;1019;-54
2021/05/09 07:25:47;;;;;;;;;;;;;;;19.47;64.63;102015.28;5036876;28;973;-54
2021/05/09 07:28:14;;;;;;;;;;;;;;;19.45;64.18;102001.97;5036872;28;1035;-54
2021/05/09 07:30:41;;;;;;;;;;;;;;;19.43;64.54;102011.94;5037153;28;1864;-54
2021/05/09 07:33:08;;;;;;;;;;;;;;;19.41;64.25;102013.88;5037168;28;981;-54
2021/05/09 07:35:34;;;;;;;;;;;;;;;19.43;64.19;102016.47;5036867;28;1976;-54
2021/05/09 07:38:01;;;;;;;;;;;;;;;19.45;64.81;102012.69;5036771;28;1137;-54
2021/05/09 07:40:27;;;;;;;;;;;;;;;19.43;64.59;102009.25;5037003;28;1057;-54
2021/05/09 07:42:53;;;;;;;;;;;;;;;19.42;64.66;102012.06;5036540;28;1050;-54
2021/05/09 07:45:20;;;;;;;;;;;;;;;19.42;64.66;102012.94;5036665;28;1205;-54
2021/05/09 07:47:46;;;;;;;;;;;;;;;19.42;64.57;102010.25;5036855;28;1038;-54
2021/05/09 07:50:13;;;;;;;;;;;;;;;19.44;64.73;102010.16;5036785;28;990;-54
2021/05/09 07:52:39;;;;;;;;;;;;;;;19.48;64.44;102023.22;5036737;28;987;-54
2021/05/09 07:55:07;;;;;;;;;;;;;;;19.47;64.76;102026.84;5036593;28;1906;-54
2021/05/09 07:57:33;;;;;;;;;;;;;;;19.46;64.53;102025.16;5036429;28;1043;-54
2021/05/09 07:59:59;;;;;;;;;;;;;;;19.44;64.64;102016.34;5036649;28;999;-55
2021/05/09 08:02:25;;;;;;;;;;;;;;;19.44;64.90;102016.34;5036184;28;1396;-54
2021/05/09 08:04:51;;;;;;;;;;;;;;;19.42;64.14;102012.94;5036219;28;1038;-54
2021/05/09 08:07:17;;;;;;;;;;;;;;;19.42;64.83;102029.03;5036443;28;977;-54
2021/05/09 08:09:43;;;;;;;;;;;;;;;19.41;64.45;102002.31;5036171;28;1103;-54
2021/05/09 08:12:10;;;;;;;;;;;;;;;19.42;64.86;102002.19;5035139;28;1322;-55
2021/05/09 08:14:36;;;;;;;;;;;;;;;19.41;64.93;102008.50;5036192;28;1910;-53
2021/05/09 08:17:02;;;;;;;;;;;;;;;19.42;64.73;102015.63;5036052;28;1058;-54
2021/05/09 08:19:28;;;;;;;;;;;;;;;19.41;64.51;102010.34;5036172;28;1089;-54
2021/05/09 08:21:54;;;;;;;;;;;;;;;19.42;65.02;102025.50;5036183;28;1043;-54
2021/05/09 08:24:20;;;;;;;;;;;;;;;19.38;65.04;102019.47;5036166;28;1093;-55
2021/05/09 08:26:46;;;;;;;;;;;;;;;19.39;65.09;102018.50;5035828;28;1066;-54
2021/05/09 08:29:13;;;;;;;;;;;;;;;19.37;64.70;102009.69;5035894;28;1003;-54
2021/05/09 08:31:39;;;;;;;;;;;;;;;19.37;64.89;102004.34;5035984;28;1056;-54
2021/05/09 08:34:05;;;;;;;;;;;;;;;19.38;64.76;102014.13;5035585;28;1914;-54
2021/05/09 08:36:31;;;;;;;;;;;;;;;19.40;65.13;102003.28;5035596;28;1046;-54
2021/05/09 08:38:57;;;;;;;;;;;;;;;19.39;64.98;102014.97;5034932;28;1103;-54
2021/05/09 08:41:24;;;;;;;;;;;;;;;19.39;64.85;102002.41;5035752;28;997;-54
2021/05/09 08:43:50;;;;;;;;;;;;;;;19.37;64.86;102012.38;5035753;28;991;-54
2021/05/09 08:46:20;;;;;;;;;;;;;;;19.37;65.04;102009.69;5035415;28;1058;-54
2021/05/09 08:48:47;;;;;;;;;;;;;;;19.37;64.65;102003.47;5035701;28;977;-54
2021/05/09 08:51:14;;;;;;;;;;;;;;;19.38;64.70;102013.25;5035204;28;1110;-54
2021/05/09 08:53:40;;;;;;;;;;;;;;;19.37;64.76;101998.13;5035564;28;1076;-54
2021/05/09 08:56:06;;;;;;;;;;;;;;;19.36;64.98;101997.28;5035229;28;1968;-54
2021/05/09 08:58:32;;;;;;;;;;;;;;;19.38;65.25;102006.06;5035507;28;981;-54
2021/05/09 09:00:58;;;;;;;;;;;;;;;19.40;65.13;102005.97;5035188;28;1988;-54
2021/05/09 09:03:25;;;;;;;;;;;;;;;19.38;64.94;101999.84;5035075;28;1414;-54
2021/05/09 09:05:51;;;;;;;;;;;;;;;19.35;65.08;102000.91;5035302;28;1057;-54
2021/05/09 09:08:17;;;;;;;;;;;;;;;19.36;65.19;101997.28;5035329;28;1142;-54
2021/05/09 09:10:44;;;;;;;;;;;;;;;19.39;64.95;101997.03;5034935;28;1964;-54
2021/05/09 09:13:20;;;;;;;;;;;;;;;19.34;65.42;101985.78;5034998;28;1043;-55
2021/05/09 09:15:47;;;;;;;;;;;;;;;19.36;65.00;101993.69;5034873;28;1981;-54
2021/05/09 09:18:31;;;;;;;;;;;;;;;19.36;65.51;101982.97;5035041;28;1054;-54
2021/05/09 09:20:58;;;;;;;;;;;;;;;19.36;65.30;101991.91;5035111;28;1066;-54
2021/05/09 09:23:42;;;;;;;;;;;;;;;19.33;64.84;101985.88;5035038;28;985;-55
2021/05/09 09:26:23;;;;;;;;;;;;;;;19.34;65.16;101984.91;5035000;28;1060;-54
2021/05/09 09:28:49;;;;;;;;;;;;;;;19.34;65.25;101984.91;5035063;28;1062;-53
2021/05/09 09:31:15;;;;;;;;;;;;;;;19.34;65.30;101983.09;5034539;28;1063;-54
2021/05/09 09:33:49;;;;;;;;;;;;;;;19.32;64.70;101979.69;5034965;28;1066;-54
2021/05/09 09:36:20;;;;;;;;;;;;;;;19.34;65.43;101975.06;5034624;28;1971;-54
2021/05/09 09:38:49;;;;;;;;;;;;;;;19.32;65.30;101990.41;5034950;28;1043;-54
2021/05/09 09:41:16;;;;;;;;;;;;;;;19.33;65.28;101992.09;5034911;28;981;-54
2021/05/09 09:43:43;;;;;;;;;;;;;;;19.32;65.45;101974.31;5034653;28;1117;-54
2021/05/09 09:46:24;;;;;;;;;;;;;;;19.32;65.35;101985.03;5034825;28;970;-54
2021/05/09 09:48:50;;;;;;;;;;;;;;;19.34;65.30;101982.22;5036280;28;1016;-54
2021/05/09 09:51:16;;;;;;;;;;;;;;;19.31;64.90;101972.59;5039048;28;1077;-54
2021/05/09 09:53:43;;;;;;;;;;;;;;;19.31;65.49;101971.72;5038885;28;949;-54
2021/05/09 09:56:10;;;;;;;;;;;;;;;19.30;64.96;101981.63;5038815;28;1906;-54
2021/05/09 09:58:39;;;;;;;;;;;;;;;19.30;65.69;101964.63;5038554;28;1233;-54
2021/05/09 10:01:05;;;;;;;;;;;;;;;19.31;65.31;101977.94;5038521;28;1226;-54
2021/05/09 10:03:32;;;;;;;;;;;;;;;19.30;65.35;101973.56;5038646;28;1521;-54
2021/05/09 10:05:58;;;;;;;;;;;;;;;19.28;65.35;101965.63;5038297;28;1066;-54
2021/05/09 10:08:25;;;;;;;;;;;;;;;19.32;65.17;101965.38;5038680;28;1072;-53
2021/05/09 10:10:52;;;;;;;;;;;;;;;19.28;65.14;101962.09;5038656;28;1017;-54
2021/05/09 10:13:19;;;;;;;;;;;;;;;19.30;65.03;101970.00;5038204;28;1054;-54
2021/05/09 10:15:45;;;;;;;;;;;;;;;19.31;65.48;101958.31;5038532;28;1981;-54
2021/05/09 10:18:12;;;;;;;;;;;;;;;19.30;65.54;101976.25;5038229;28;1113;-54
2021/05/09 10:20:38;;;;;;;;;;;;;;;19.31;65.36;101961.00;5038023;28;1063;-54
2021/05/09 10:23:05;;;;;;;;;;;;;;;19.31;65.35;101961.00;5038451;28;985;-54
2021/05/09 10:25:46;;;;;;;;;;;;;;;19.28;65.52;101952.22;5038383;28;1064;-54
2021/05/09 10:28:13;;;;;;;;;;;;;;;19.30;65.31;101952.09;5034886;28;1723;-54
2021/05/09 10:30:43;;;;;;;;;;;;;;;19.30;65.34;101952.09;5037999;28;1047;-53
2021/05/09 10:33:09;;;;;;;;;;;;;;;19.29;65.20;101955.75;5037924;28;1203;-53
2021/05/09 10:35:35;;;;;;;;;;;;;;;19.29;65.52;101950.38;5038143;28;1906;-54
2021/05/09 10:38:03;;;;;;;;;;;;;;;19.29;65.18;101942.34;5037885;28;1054;-53
2021/05/09 10:40:31;;;;;;;;;;;;;;;19.27;65.53;101952.31;5038085;28;981;-54
2021/05/09 10:43:17;;;;;;;;;;;;;;;19.27;65.66;101957.69;5037626;28;1099;-54
2021/05/09 10:45:53;;;;;;;;;;;;;;;19.26;65.40;101947.94;5038093;28;1062;-54
2021/05/09 10:48:35;;;;;;;;;;;;;;;19.24;65.19;101944.50;5037999;28;1003;-54
2021/05/09 10:51:24;;;;;;;;;;;;;;;19.23;65.20;101940.94;5037848;28;986;-53
2021/05/09 10:53:50;;;;;;;;;;;;;;;19.27;65.82;101949.63;5037469;28;997;-54
2021/05/09 10:56:31;;;;;;;;;;;;;;;19.27;65.41;101931.72;5037674;28;1906;-53
2021/05/09 10:58:57;;;;;;;;;;;;;;;19.27;65.64;101929.03;5034627;28;2067;-54
2021/05/09 11:01:25;;;;;;;;;;;;;;;19.26;65.08;101926.47;5036885;28;1367;-54
2021/05/09 11:03:52;;;;;;;;;;;;;;;19.27;65.67;101930.84;5037399;28;1054;-53
2021/05/09 11:06:19;;;;;;;;;;;;;;;19.28;65.00;101935.28;5037346;28;1110;-53
2021/05/09 11:08:56;;;;;;;;;;;;;;;19.30;65.80;101927.09;5037624;28;1069;-54
2021/05/09 11:11:22;;;;;;;;;;;;;;;19.25;65.90;101919.38;5037040;28;1145;-54
2021/05/09 11:14:04;;;;;;;;;;;;;;;19.28;65.51;101919.19;5037353;28;1004;-54
2021/05/09 11:16:32;;;;;;;;;;;;;;;19.30;65.77;101902.94;5037039;28;1436;-54
2021/05/09 11:18:58;;;;;;;;;;;;;;;19.30;65.53;101919.94;5037062;28;1055;-54
2021/05/09 11:21:24;;;;;;;;;;;;;;;19.27;65.37;101909.41;5037320;28;941;-54
2021/05/09 11:23:51;;;;;;;;;;;;;;;19.29;65.83;101904.78;5036975;28;1086;-54
2021/05/09 11:26:20;;;;;;;;;;;;;;;19.29;65.74;101910.16;5036864;28;1034;-54
2021/05/09 11:29:03;;;;;;;;;;;;;;;19.32;65.45;101903.69;5036975;28;1220;-54
2021/05/09 11:31:29;;;;;;;;;;;;;;;19.30;65.65;101911.88;5036931;28;1972;-54
2021/05/09 11:33:56;;;;;;;;;;;;;;;19.29;65.44;101902.09;5037006;28;1068;-54
2021/05/09 11:36:26;;;;;;;;;;;;;;;19.28;65.44;101900.41;5036276;28;1914;-53
2021/05/09 11:38:52;;;;;;;;;;;;;;;19.26;65.51;101881.72;5036777;28;1118;-54
2021/05/09 11:41:18;;;;;;;;;;;;;;;19.28;65.65;101897.72;5036567;28;995;-54
2021/05/09 11:43:58;;;;;;;;;;;;;;;19.24;65.56;101880.13;5036917;28;1032;-54
2021/05/09 11:46:24;;;;;;;;;;;;;;;19.26;65.58;101887.09;5036514;28;1818;-54
2021/05/09 11:48:50;;;;;;;;;;;;;;;19.27;65.68;101879.91;5036884;28;2043;-53
2021/05/09 11:51:17;;;;;;;;;;;;;;;19.24;65.70;101874.78;5036474;28;1117;-53
2021/05/09 11:53:43;;;;;;;;;;;;;;;19.28;65.66;101881.63;5036393;28;1099;-53
2021/05/09 11:56:09;;;;;;;;;;;;;;;19.27;65.36;101874.53;5036663;28;1976;-54
2021/05/09 11:58:36;;;;;;;;;;;;;;;19.25;65.64;101877.31;5036316;28;1063;-54
2021/05/09 12:01:02;;;;;;;;;;;;;;;19.26;65.32;101871.00;5036318;28;966;-54
2021/05/09 12:03:28;;;;;;;;;;;;;;;19.29;65.73;101875.28;5036436;28;1461;-54
2021/05/09 12:05:54;;;;;;;;;;;;;;;19.27;65.81;101863.81;5036160;28;1103;-54
2021/05/09 12:08:21;;;;;;;;;;;;;;;19.26;65.57;101873.69;5036512;28;958;-55
2021/05/09 12:10:47;;;;;;;;;;;;;;;19.26;65.80;101851.38;5036231;28;1030;-54
2021/05/09 12:13:13;;;;;;;;;;;;;;;19.31;65.63;101870.66;5035317;28;1068;-54
2021/05/09 12:15:40;;;;;;;;;;;;;;;19.30;65.47;101852.00;5036277;28;1906;-54
2021/05/09 12:18:07;;;;;;;;;;;;;;;19.32;65.60;101861.66;5036212;28;1057;-54
2021/05/09 12:20:34;;;;;;;;;;;;;;;19.31;65.75;101859.09;5036534;28;1892;-54
2021/05/09 12:23:01;;;;;;;;;;;;;;;19.31;65.66;101859.94;5036156;28;970;-54
2021/05/09 12:25:32;;;;;;;;;;;;;;;19.27;65.77;101856.63;5035722;28;1051;-54
2021/05/09 12:28:04;;;;;;;;;;;;;;;19.29;65.78;101853.81;5036100;28;1047;-54
2021/05/09 12:30:30;;;;;;;;;;;;;;;19.29;65.78;101861.88;5035948;28;982;-54
2021/05/09 12:32:56;;;;;;;;;;;;;;;19.28;65.69;101842.25;5035944;28;1049;-54
2021/05/09 12:35:22;;;;;;;;;;;;;;;19.29;65.91;101840.41;5035767;28;1902;-54
2021/05/09 12:37:59;;;;;;;;;;;;;;;19.26;65.09;101832.63;5035835;28;978;-54
2021/05/09 12:40:25;;;;;;;;;;;;;;;19.26;65.76;101833.47;5035535;28;1051;-54
2021/05/09 12:42:54;;;;;;;;;;;;;;;19.25;65.81;101842.47;5035749;28;981;-54
2021/05/09 12:45:27;;;;;;;;;;;;;;;19.26;65.50;101837.97;5035733;28;1055;-54
2021/05/09 12:48:00;;;;;;;;;;;;;;;19.24;65.20;101816.63;5035387;28;1099;-54